sensor_id;sensor_type;location;lat;lon;timestamp;pressure;altitude;pressure_sealevel;temperature;humidity
43312;BME280;30041;48.300;16.352;2022-11-12T00:01:15;101443.91;;;20.98;50.46
43312;BME280;30041;48.300;16.352;2022-11-12T00:03:41;101441.22;;;20.98;50.44
43312;BME280;30041;48.300;16.352;2022-11-12T00:06:09;101438.91;;;20.94;50.44
43312;BME280;30041;48.300;16.352;2022-11-12T00:08:35;101439.75;;;20.95;50.56
43312;BME280;30041;48.300;16.352;2022-11-12T00:11:00;101440.56;;;20.96;50.56
43312;BME280;30041;48.300;16.352;2022-11-12T00:13:26;101432.31;;;20.97;50.49
43312;BME280;30041;48.300;16.352;2022-11-12T00:15:52;101425.44;;;20.94;50.42
43312;BME280;30041;48.300;16.352;2022-11-12T00:18:18;101424.78;;;20.92;50.57
43312;BME280;30041;48.300;16.352;2022-11-12T00:20:46;101428.31;;;20.93;50.38
43312;BME280;30041;48.300;16.352;2022-11-12T00:23:12;101430.19;;;20.92;50.34
43312;BME280;30041;48.300;16.352;2022-11-12T00:25:38;101434.75;;;20.92;50.34
43312;BME280;30041;48.300;16.352;2022-11-12T00:28:06;101428.50;;;20.91;50.36
43312;BME280;30041;48.300;16.352;2022-11-12T00:30:32;101420.41;;;20.91;50.34
43312;BME280;30041;48.300;16.352;2022-11-12T00:33:02;101428.72;;;20.90;50.37
43312;BME280;30041;48.300;16.352;2022-11-12T00:35:30;101433.88;;;20.91;50.46
43312;BME280;30041;48.300;16.352;2022-11-12T00:37:55;101428.50;;;20.91;50.13
43312;BME280;30041;48.300;16.352;2022-11-12T00:40:21;101429.72;;;20.89;50.35
43312;BME280;30041;48.300;16.352;2022-11-12T00:42:46;101424.31;;;20.89;50.38
43312;BME280;30041;48.300;16.352;2022-11-12T00:45:12;101419.75;;;20.89;50.28
43312;BME280;30041;48.300;16.352;2022-11-12T00:47:38;101419.75;;;20.89;50.21
43312;BME280;30041;48.300;16.352;2022-11-12T00:50:04;101417.94;;;20.90;50.25
43312;BME280;30041;48.300;16.352;2022-11-12T00:52:29;101413.72;;;20.87;50.40
43312;BME280;30041;48.300;16.352;2022-11-12T00:54:55;101409.75;;;20.83;50.40
43312;BME280;30041;48.300;16.352;2022-11-12T00:57:21;101412.06;;;20.86;50.35
43312;BME280;30041;48.300;16.352;2022-11-12T00:59:49;101410.59;;;20.84;50.30
43312;BME280;30041;48.300;16.352;2022-11-12T01:02:15;101408.53;;;20.86;50.17
43312;BME280;30041;48.300;16.352;2022-11-12T01:04:40;101403.50;;;20.83;50.35
43312;BME280;30041;48.300;16.352;2022-11-12T01:07:06;101398.97;;;20.83;50.26
43312;BME280;30041;48.300;16.352;2022-11-12T01:09:31;101400.81;;;20.83;50.35
43312;BME280;30041;48.300;16.352;2022-11-12T01:11:57;101397.13;;;20.84;50.40
43312;BME280;30041;48.300;16.352;2022-11-12T01:14:22;101398.97;;;20.83;50.29
43312;BME280;30041;48.300;16.352;2022-11-12T01:16:48;101391.91;;;20.82;50.27
43312;BME280;30041;48.300;16.352;2022-11-12T01:19:14;101394.78;;;20.81;50.18
43312;BME280;30041;48.300;16.352;2022-11-12T01:21:41;101391.25;;;20.80;49.95
43312;BME280;30041;48.300;16.352;2022-11-12T01:24:08;101389.59;;;20.79;50.39
43312;BME280;30041;48.300;16.352;2022-11-12T01:26:34;101386.91;;;20.79;50.28
43312;BME280;30041;48.300;16.352;2022-11-12T01:29:00;101376.78;;;20.81;50.23
43312;BME280;30041;48.300;16.352;2022-11-12T01:31:28;101385.88;;;20.80;50.04
43312;BME280;30041;48.300;16.352;2022-11-12T01:33:56;101383.00;;;20.82;50.15
43312;BME280;30041;48.300;16.352;2022-11-12T01:36:23;101380.47;;;20.80;50.19
43312;BME280;30041;48.300;16.352;2022-11-12T01:38:50;101376.13;;;20.79;50.46
43312;BME280;30041;48.300;16.352;2022-11-12T01:41:21;101379.00;;;20.78;50.35
43312;BME280;30041;48.300;16.352;2022-11-12T01:43:47;101380.69;;;20.79;50.07
43312;BME280;30041;48.300;16.352;2022-11-12T01:46:31;101385.22;;;20.78;50.17
43312;BME280;30041;48.300;16.352;2022-11-12T01:49:02;101394.34;;;20.77;50.14
43312;BME280;30041;48.300;16.352;2022-11-12T01:51:33;101391.00;;;20.75;50.24
43312;BME280;30041;48.300;16.352;2022-11-12T01:54:04;101389.97;;;20.76;50.04
43312;BME280;30041;48.300;16.352;2022-11-12T01:56:31;101393.06;;;20.73;50.22
43312;BME280;30041;48.300;16.352;2022-11-12T01:59:04;101383.94;;;20.74;50.21
43312;BME280;30041;48.300;16.352;2022-11-12T02:01:34;101374.84;;;20.75;50.25
43312;BME280;30041;48.300;16.352;2022-11-12T02:04:00;101380.22;;;20.75;50.17
43312;BME280;30041;48.300;16.352;2022-11-12T02:06:26;101380.22;;;20.75;50.09
43312;BME280;30041;48.300;16.352;2022-11-12T02:08:52;101385.44;;;20.77;50.09
43312;BME280;30041;48.300;16.352;2022-11-12T02:11:20;101372.31;;;20.73;50.10
43312;BME280;30041;48.300;16.352;2022-11-12T02:13:47;101377.94;;;20.72;50.08
43312;BME280;30041;48.300;16.352;2022-11-12T02:16:15;101380.41;;;20.73;50.17
43312;BME280;30041;48.300;16.352;2022-11-12T02:18:40;101383.31;;;20.72;50.11
43312;BME280;30041;48.300;16.352;2022-11-12T02:21:08;101394.72;;;20.74;50.08
43312;BME280;30041;48.300;16.352;2022-11-12T02:23:33;101382.09;;;20.75;50.25
43312;BME280;30041;48.300;16.352;2022-11-12T02:26:00;101379.75;;;20.71;50.16
43312;BME280;30041;48.300;16.352;2022-11-12T02:28:26;101377.28;;;20.70;50.13
43312;BME280;30041;48.300;16.352;2022-11-12T02:30:52;101377.28;;;20.70;50.13
43312;BME280;30041;48.300;16.352;2022-11-12T02:33:18;101374.59;;;20.70;50.18
43312;BME280;30041;48.300;16.352;2022-11-12T02:35:44;101377.28;;;20.70;50.14
43312;BME280;30041;48.300;16.352;2022-11-12T02:38:10;101372.91;;;20.69;50.03
43312;BME280;30041;48.300;16.352;2022-11-12T02:40:35;101375.16;;;20.65;50.12
43312;BME280;30041;48.300;16.352;2022-11-12T02:43:02;101372.06;;;20.68;50.13
43312;BME280;30041;48.300;16.352;2022-11-12T02:45:27;101376.41;;;20.69;50.07
43312;BME280;30041;48.300;16.352;2022-11-12T02:47:53;101373.94;;;20.68;50.00
43312;BME280;30041;48.300;16.352;2022-11-12T02:50:19;101375.59;;;20.69;50.02
43312;BME280;30041;48.300;16.352;2022-11-12T02:52:44;101376.41;;;20.69;50.02
43312;BME280;30041;48.300;16.352;2022-11-12T02:55:11;101366.88;;;20.67;49.96
43312;BME280;30041;48.300;16.352;2022-11-12T02:57:38;101369.56;;;20.67;49.92
43312;BME280;30041;48.300;16.352;2022-11-12T03:00:06;101369.78;;;20.65;50.12
43312;BME280;30041;48.300;16.352;2022-11-12T03:02:33;101369.13;;;20.63;50.09
43312;BME280;30041;48.300;16.352;2022-11-12T03:04:58;101373.28;;;20.66;49.84
43312;BME280;30041;48.300;16.352;2022-11-12T03:07:24;101376.16;;;20.64;50.02
43312;BME280;30041;48.300;16.352;2022-11-12T03:09:50;101376.16;;;20.64;50.07
43312;BME280;30041;48.300;16.352;2022-11-12T03:12:16;101369.78;;;20.65;50.19
43312;BME280;30041;48.300;16.352;2022-11-12T03:14:42;101376.00;;;20.66;49.94
43312;BME280;30041;48.300;16.352;2022-11-12T03:17:07;101374.31;;;20.65;49.99
43312;BME280;30041;48.300;16.352;2022-11-12T03:19:33;101374.69;;;20.62;50.00
43312;BME280;30041;48.300;16.352;2022-11-12T03:21:58;101369.94;;;20.64;50.00
43312;BME280;30041;48.300;16.352;2022-11-12T03:24:24;101377.00;;;20.65;49.96
43312;BME280;30041;48.300;16.352;2022-11-12T03:26:49;101378.22;;;20.62;50.04
43312;BME280;30041;48.300;16.352;2022-11-12T03:29:15;101383.81;;;20.61;50.27
43312;BME280;30041;48.300;16.352;2022-11-12T03:31:41;101382.13;;;20.60;50.03
43312;BME280;30041;48.300;16.352;2022-11-12T03:34:07;101381.94;;;20.61;49.97
43312;BME280;30041;48.300;16.352;2022-11-12T03:36:36;101380.25;;;20.60;49.98
43312;BME280;30041;48.300;16.352;2022-11-12T03:39:01;101374.22;;;20.58;50.03
43312;BME280;30041;48.300;16.352;2022-11-12T03:41:27;101384.81;;;20.60;50.02
43312;BME280;30041;48.300;16.352;2022-11-12T03:43:52;101384.81;;;20.60;49.99
43312;BME280;30041;48.300;16.352;2022-11-12T03:46:18;101379.59;;;20.58;50.14
43312;BME280;30041;48.300;16.352;2022-11-12T03:48:43;101378.59;;;20.59;49.95
43312;BME280;30041;48.300;16.352;2022-11-12T03:51:09;101381.28;;;20.59;50.11
43312;BME280;30041;48.300;16.352;2022-11-12T03:53:35;101380.66;;;20.57;49.93
43312;BME280;30041;48.300;16.352;2022-11-12T03:56:00;101378.78;;;20.58;50.00
43312;BME280;30041;48.300;16.352;2022-11-12T03:58:26;101373.41;;;20.58;49.93
43312;BME280;30041;48.300;16.352;2022-11-12T04:00:53;101362.97;;;20.55;49.93
43312;BME280;30041;48.300;16.352;2022-11-12T04:03:19;101360.75;;;20.58;49.89
43312;BME280;30041;48.300;16.352;2022-11-12T04:05:44;101362.97;;;20.55;49.85
43312;BME280;30041;48.300;16.352;2022-11-12T04:08:16;101371.41;;;20.51;49.88
43312;BME280;30041;48.300;16.352;2022-11-12T04:10:42;101373.75;;;20.55;49.87
43312;BME280;30041;48.300;16.352;2022-11-12T04:13:11;101379.50;;;20.51;49.97
43312;BME280;30041;48.300;16.352;2022-11-12T04:15:37;101379.13;;;20.55;49.89
43312;BME280;30041;48.300;16.352;2022-11-12T04:18:03;101381.19;;;20.52;49.87
43312;BME280;30041;48.300;16.352;2022-11-12T04:20:28;101381.00;;;20.54;49.87
43312;BME280;30041;48.300;16.352;2022-11-12T04:22:54;101379.72;;;20.50;50.10
43312;BME280;30041;48.300;16.352;2022-11-12T04:25:20;101387.56;;;20.51;49.72
43312;BME280;30041;48.300;16.352;2022-11-12T04:27:45;101379.72;;;20.50;49.90
43312;BME280;30041;48.300;16.352;2022-11-12T04:30:11;101387.56;;;20.51;49.87
43312;BME280;30041;48.300;16.352;2022-11-12T04:32:40;101389.63;;;20.49;50.03
43312;BME280;30041;48.300;16.352;2022-11-12T04:35:10;101385.09;;;20.50;49.90
43312;BME280;30041;48.300;16.352;2022-11-12T04:37:36;101385.09;;;20.50;49.96
43312;BME280;30041;48.300;16.352;2022-11-12T04:40:02;101389.84;;;20.48;49.90
43312;BME280;30041;48.300;16.352;2022-11-12T04:42:28;101382.41;;;20.50;49.79
43312;BME280;30041;48.300;16.352;2022-11-12T04:44:53;101393.34;;;20.48;49.99
43312;BME280;30041;48.300;16.352;2022-11-12T04:47:19;101389.84;;;20.48;49.91
43312;BME280;30041;48.300;16.352;2022-11-12T04:49:45;101386.09;;;20.49;49.82
43312;BME280;30041;48.300;16.352;2022-11-12T04:52:10;101388.16;;;20.47;50.00
43312;BME280;30041;48.300;16.352;2022-11-12T04:54:36;101377.38;;;20.47;49.98
43312;BME280;30041;48.300;16.352;2022-11-12T04:57:02;101383.16;;;20.44;49.85
43312;BME280;30041;48.300;16.352;2022-11-12T04:59:27;101387.50;;;20.45;49.92
43312;BME280;30041;48.300;16.352;2022-11-12T05:01:53;101394.75;;;20.44;50.01
43312;BME280;30041;48.300;16.352;2022-11-12T05:04:19;101389.00;;;20.47;49.82
43312;BME280;30041;48.300;16.352;2022-11-12T05:06:44;101392.88;;;20.45;50.04
43312;BME280;30041;48.300;16.352;2022-11-12T05:09:10;101385.28;;;20.48;49.93
43312;BME280;30041;48.300;16.352;2022-11-12T05:11:35;101381.94;;;20.46;50.04
43312;BME280;30041;48.300;16.352;2022-11-12T05:14:01;101383.78;;;20.46;49.90
43312;BME280;30041;48.300;16.352;2022-11-12T05:16:26;101392.53;;;20.48;50.05
43312;BME280;30041;48.300;16.352;2022-11-12T05:18:52;101382.75;;;20.47;49.91
43312;BME280;30041;48.300;16.352;2022-11-12T05:21:17;101388.16;;;20.47;50.05
43312;BME280;30041;48.300;16.352;2022-11-12T05:23:43;101399.31;;;20.44;50.08
43312;BME280;30041;48.300;16.352;2022-11-12T05:26:09;101398.09;;;20.46;49.94
43312;BME280;30041;48.300;16.352;2022-11-12T05:28:37;101400.97;;;20.45;50.05
43312;BME280;30041;48.300;16.352;2022-11-12T05:31:03;101401.44;;;20.48;50.03
43312;BME280;30041;48.300;16.352;2022-11-12T05:33:37;101397.09;;;20.47;50.00
43312;BME280;30041;48.300;16.352;2022-11-12T05:36:06;101400.03;;;20.52;49.76
43312;BME280;30041;48.300;16.352;2022-11-12T05:38:31;101399.38;;;20.50;49.84
43312;BME280;30041;48.300;16.352;2022-11-12T05:40:57;101390.84;;;20.47;49.93
43312;BME280;30041;48.300;16.352;2022-11-12T05:43:22;101395.00;;;20.49;49.96
43312;BME280;30041;48.300;16.352;2022-11-12T05:45:48;101393.19;;;20.50;50.08
43312;BME280;30041;48.300;16.352;2022-11-12T05:48:17;101408.31;;;20.51;49.90
43312;BME280;30041;48.300;16.352;2022-11-12T05:50:43;101400.03;;;20.52;49.89
43312;BME280;30041;48.300;16.352;2022-11-12T05:53:08;101405.25;;;20.54;50.01
43312;BME280;30041;48.300;16.352;2022-11-12T05:55:37;101407.72;;;20.56;49.87
43312;BME280;30041;48.300;16.352;2022-11-12T05:58:05;101409.78;;;20.53;49.92
43312;BME280;30041;48.300;16.352;2022-11-12T06:00:31;101410.44;;;20.56;49.98
43312;BME280;30041;48.300;16.352;2022-11-12T06:02:57;101409.88;;;20.60;49.90
43312;BME280;30041;48.300;16.352;2022-11-12T06:05:22;101417.16;;;20.60;50.16
43312;BME280;30041;48.300;16.352;2022-11-12T06:07:48;101416.50;;;20.58;49.88
43312;BME280;30041;48.300;16.352;2022-11-12T06:10:14;101421.06;;;20.57;50.08
43312;BME280;30041;48.300;16.352;2022-11-12T06:12:39;101417.53;;;20.57;50.12
43312;BME280;30041;48.300;16.352;2022-11-12T06:15:09;101416.50;;;20.58;49.98
43312;BME280;30041;48.300;16.352;2022-11-12T06:17:35;101413.13;;;20.56;50.16
43312;BME280;30041;48.300;16.352;2022-11-12T06:20:00;101422.91;;;20.57;50.27
43312;BME280;30041;48.300;16.352;2022-11-12T06:22:26;101427.28;;;20.58;50.34
43312;BME280;30041;48.300;16.352;2022-11-12T06:24:52;101424.84;;;20.63;49.95
43312;BME280;30041;48.300;16.352;2022-11-12T06:27:17;101422.78;;;20.65;49.69
43312;BME280;30041;48.300;16.352;2022-11-12T06:29:43;101424.66;;;20.64;49.36
43312;BME280;30041;48.300;16.352;2022-11-12T06:32:08;101421.78;;;20.66;49.09
43312;BME280;30041;48.300;16.352;2022-11-12T06:34:34;101425.38;;;20.73;48.76
43312;BME280;30041;48.300;16.352;2022-11-12T06:37:03;101428.56;;;20.77;48.46
43312;BME280;30041;48.300;16.352;2022-11-12T06:39:32;101429.81;;;20.81;48.50
43312;BME280;30041;48.300;16.352;2022-11-12T06:41:58;101433.16;;;20.83;48.74
43312;BME280;30041;48.300;16.352;2022-11-12T06:44:23;101431.13;;;20.85;48.68
43312;BME280;30041;48.300;16.352;2022-11-12T06:46:50;101433.81;;;20.85;48.62
43312;BME280;30041;48.300;16.352;2022-11-12T06:49:18;101435.28;;;20.87;48.72
43312;BME280;30041;48.300;16.352;2022-11-12T06:51:44;101435.28;;;20.87;48.65
43312;BME280;30041;48.300;16.352;2022-11-12T06:54:10;101435.94;;;20.89;48.79
43312;BME280;30041;48.300;16.352;2022-11-12T06:56:36;101439.28;;;20.91;48.84
43312;BME280;30041;48.300;16.352;2022-11-12T06:59:01;101438.91;;;20.94;48.77
43312;BME280;30041;48.300;16.352;2022-11-12T07:01:27;101434.53;;;20.93;48.94
43312;BME280;30041;48.300;16.352;2022-11-12T07:03:53;101437.22;;;20.93;48.84
43312;BME280;30041;48.300;16.352;2022-11-12T07:06:22;101443.44;;;20.94;49.04
43312;BME280;30041;48.300;16.352;2022-11-12T07:08:48;101444.31;;;20.94;49.07
43312;BME280;30041;48.300;16.352;2022-11-12T07:11:17;101447.66;;;20.97;49.17
43312;BME280;30041;48.300;16.352;2022-11-12T07:13:44;101452.00;;;20.98;49.15
43312;BME280;30041;48.300;16.352;2022-11-12T07:16:13;101442.91;;;20.99;49.24
43312;BME280;30041;48.300;16.352;2022-11-12T07:18:39;101438.53;;;20.98;49.23
43312;BME280;30041;48.300;16.352;2022-11-12T07:21:07;101439.34;;;20.98;49.27
43312;BME280;30041;48.300;16.352;2022-11-12T07:23:34;101444.56;;;21.00;49.46
43312;BME280;30041;48.300;16.352;2022-11-12T07:26:07;101436.88;;;20.97;49.43
43312;BME280;30041;48.300;16.352;2022-11-12T07:28:35;101441.88;;;21.00;49.38
43312;BME280;30041;48.300;16.352;2022-11-12T07:31:05;101440.00;;;21.00;49.48
43312;BME280;30041;48.300;16.352;2022-11-12T07:33:32;101443.50;;;21.01;49.53
43312;BME280;30041;48.300;16.352;2022-11-12T07:36:02;101444.94;;;20.97;49.52
43312;BME280;30041;48.300;16.352;2022-11-12T07:38:38;101447.44;;;20.98;49.16
43312;BME280;30041;48.300;16.352;2022-11-12T07:41:15;101445.59;;;20.99;49.35
43312;BME280;30041;48.300;16.352;2022-11-12T07:43:43;101440.56;;;20.96;49.50
43312;BME280;30041;48.300;16.352;2022-11-12T07:46:23;101446.34;;;20.92;49.61
43312;BME280;30041;48.300;16.352;2022-11-12T07:48:53;101451.75;;;20.92;49.75
43312;BME280;30041;48.300;16.352;2022-11-12T07:51:26;101457.31;;;20.91;49.97
43312;BME280;30041;48.300;16.352;2022-11-12T07:53:55;101466.22;;;20.91;50.19
43312;BME280;30041;48.300;16.352;2022-11-12T07:56:27;101462.53;;;20.92;50.01
43312;BME280;30041;48.300;16.352;2022-11-12T07:58:53;101459.81;;;20.92;49.93
43312;BME280;30041;48.300;16.352;2022-11-12T08:01:31;101458.13;;;20.91;50.27
43312;BME280;30041;48.300;16.352;2022-11-12T08:03:58;101457.13;;;20.92;50.18
43312;BME280;30041;48.300;16.352;2022-11-12T08:06:25;101460.84;;;20.91;50.30
43312;BME280;30041;48.300;16.352;2022-11-12T08:08:54;101465.22;;;20.92;50.34
43312;BME280;30041;48.300;16.352;2022-11-12T08:11:20;101462.53;;;20.92;50.46
43312;BME280;30041;48.300;16.352;2022-11-12T08:13:49;101458.78;;;20.93;50.38
43312;BME280;30041;48.300;16.352;2022-11-12T08:16:15;101455.09;;;20.94;50.49
43312;BME280;30041;48.300;16.352;2022-11-12T08:18:42;101459.63;;;20.94;50.28
43312;BME280;30041;48.300;16.352;2022-11-12T08:21:11;101459.44;;;20.96;50.30
43312;BME280;30041;48.300;16.352;2022-11-12T08:23:37;101455.91;;;20.95;50.27
43312;BME280;30041;48.300;16.352;2022-11-12T08:26:05;101464.66;;;20.97;50.44
43312;BME280;30041;48.300;16.352;2022-11-12T08:28:34;101457.56;;;20.96;50.50
43312;BME280;30041;48.300;16.352;2022-11-12T08:31:11;101470.41;;;20.94;50.50
43312;BME280;30041;48.300;16.352;2022-11-12T08:33:37;101461.13;;;20.97;50.57
43312;BME280;30041;48.300;16.352;2022-11-12T08:36:04;101458.59;;;20.95;50.59
43312;BME280;30041;48.300;16.352;2022-11-12T08:38:30;101454.69;;;20.98;50.50
43312;BME280;30041;48.300;16.352;2022-11-12T08:40:59;101456.56;;;20.97;50.46
43312;BME280;30041;48.300;16.352;2022-11-12T08:43:25;101453.03;;;20.97;50.61
43312;BME280;30041;48.300;16.352;2022-11-12T08:45:56;101458.44;;;20.97;50.65
43312;BME280;30041;48.300;16.352;2022-11-12T08:48:25;101462.78;;;20.98;50.61
43312;BME280;30041;48.300;16.352;2022-11-12T08:50:51;101476.91;;;21.00;50.41
43312;BME280;30041;48.300;16.352;2022-11-12T08:53:17;101477.09;;;20.98;50.64
43312;BME280;30041;48.300;16.352;2022-11-12T08:55:43;101487.03;;;20.98;50.63
43312;BME280;30041;48.300;16.352;2022-11-12T08:58:09;101483.34;;;20.99;50.68
43312;BME280;30041;48.300;16.352;2022-11-12T09:00:37;101479.59;;;21.00;50.70
43312;BME280;30041;48.300;16.352;2022-11-12T09:03:05;101485.63;;;21.02;50.60
43312;BME280;30041;48.300;16.352;2022-11-12T09:05:33;101484.16;;;20.99;50.68
43312;BME280;30041;48.300;16.352;2022-11-12T09:08:01;101485.00;;;21.00;50.55
43312;BME280;30041;48.300;16.352;2022-11-12T09:10:28;101493.06;;;21.00;50.73
43312;BME280;30041;48.300;16.352;2022-11-12T09:12:54;101492.03;;;21.01;50.77
43312;BME280;30041;48.300;16.352;2022-11-12T09:15:24;101492.03;;;21.01;50.70
43312;BME280;30041;48.300;16.352;2022-11-12T09:18:01;101497.06;;;21.04;50.53
43312;BME280;30041;48.300;16.352;2022-11-12T09:20:28;101494.56;;;21.02;50.74
43312;BME280;30041;48.300;16.352;2022-11-12T09:22:59;101509.50;;;21.05;50.84
43312;BME280;30041;48.300;16.352;2022-11-12T09:25:25;101506.63;;;21.06;50.65
43312;BME280;30041;48.300;16.352;2022-11-12T09:27:53;101500.41;;;21.06;50.79
43312;BME280;30041;48.300;16.352;2022-11-12T09:30:20;101511.56;;;21.03;50.68
43312;BME280;30041;48.300;16.352;2022-11-12T09:32:45;101514.06;;;21.04;50.65
43312;BME280;30041;48.300;16.352;2022-11-12T09:35:11;101515.94;;;21.04;50.92
43312;BME280;30041;48.300;16.352;2022-11-12T09:37:37;101515.13;;;21.03;50.86
43312;BME280;30041;48.300;16.352;2022-11-12T09:40:04;101507.03;;;21.03;50.95
43312;BME280;30041;48.300;16.352;2022-11-12T09:42:32;101507.09;;;21.10;50.35
43312;BME280;30041;48.300;16.352;2022-11-12T09:45:33;101503.28;;;21.04;51.12
43312;BME280;30041;48.300;16.352;2022-11-12T09:47:57;101498.72;;;21.05;51.08
43312;BME280;30041;48.300;16.352;2022-11-12T09:50:32;101496.03;;;21.05;51.01
43312;BME280;30041;48.300;16.352;2022-11-12T09:53:06;101487.94;;;21.05;51.15
43312;BME280;30041;48.300;16.352;2022-11-12T09:55:35;101482.38;;;21.06;51.13
43312;BME280;30041;48.300;16.352;2022-11-12T09:58:14;101492.31;;;21.06;50.93
43312;BME280;30041;48.300;16.352;2022-11-12T10:00:54;101493.97;;;21.07;50.83
43312;BME280;30041;48.300;16.352;2022-11-12T10:03:42;101497.31;;;21.09;51.02
43312;BME280;30041;48.300;16.352;2022-11-12T10:06:15;101494.25;;;21.12;51.00
43312;BME280;30041;48.300;16.352;2022-11-12T10:08:52;101497.78;;;21.12;51.00
43312;BME280;30041;48.300;16.352;2022-11-12T10:11:42;101486.81;;;21.14;50.86
43312;BME280;30041;48.300;16.352;2022-11-12T10:14:18;101490.13;;;21.16;51.01
43312;BME280;30041;48.300;16.352;2022-11-12T10:17:10;101483.09;;;21.15;51.05
43312;BME280;30041;48.300;16.352;2022-11-12T10:19:55;101487.44;;;21.16;50.94
43312;BME280;30041;48.300;16.352;2022-11-12T10:22:49;101484.09;;;21.14;51.11
43312;BME280;30041;48.300;16.352;2022-11-12T10:25:19;101478.53;;;21.15;51.30
43312;BME280;30041;48.300;16.352;2022-11-12T10:27:45;101474.25;;;21.21;51.00
43312;BME280;30041;48.300;16.352;2022-11-12T10:30:21;101468.34;;;21.32;50.47
43312;BME280;30041;48.300;16.352;2022-11-12T10:32:48;101464.69;;;21.40;50.15
43312;BME280;30041;48.300;16.352;2022-11-12T10:35:20;101472.94;;;21.39;50.27
43312;BME280;30041;48.300;16.352;2022-11-12T10:38:02;101464.31;;;21.43;50.06
43312;BME280;30041;48.300;16.352;2022-11-12T10:40:35;101460.41;;;21.46;49.98
43312;BME280;30041;48.300;16.352;2022-11-12T10:43:02;101456.84;;;21.45;49.94
43312;BME280;30041;48.300;16.352;2022-11-12T10:45:28;101450.06;;;21.49;49.85
43312;BME280;30041;48.300;16.352;2022-11-12T10:47:54;101447.56;;;21.48;49.86
43312;BME280;30041;48.300;16.352;2022-11-12T10:50:36;101448.66;;;21.53;49.76
43312;BME280;30041;48.300;16.352;2022-11-12T10:53:06;101447.81;;;21.53;49.74
43312;BME280;30041;48.300;16.352;2022-11-12T10:55:34;101441.38;;;21.54;49.85
43312;BME280;30041;48.300;16.352;2022-11-12T11:00:30;101440.38;;;21.55;49.69
43312;BME280;30041;48.300;16.352;2022-11-12T11:02:56;101434.31;;;21.53;49.68
43312;BME280;30041;48.300;16.352;2022-11-12T11:05:33;101433.75;;;21.58;49.75
43312;BME280;30041;48.300;16.352;2022-11-12T11:08:03;101431.47;;;21.40;49.54
43312;BME280;30041;48.300;16.352;2022-11-12T11:10:33;101433.81;;;21.43;49.49
43312;BME280;30041;48.300;16.352;2022-11-12T11:13:20;101422.19;;;21.42;49.32
43312;BME280;30041;48.300;16.352;2022-11-12T11:16:07;101428.97;;;21.38;49.77
43312;BME280;30041;48.300;16.352;2022-11-12T11:18:37;101424.88;;;21.42;49.70
43312;BME280;30041;48.300;16.352;2022-11-12T11:24:21;101424.53;;;21.52;49.54
43312;BME280;30041;48.300;16.352;2022-11-12T11:27:04;101414.63;;;21.52;49.50
43312;BME280;30041;48.300;16.352;2022-11-12T11:44:50;101397.25;;;21.62;49.26
43312;BME280;30041;48.300;16.352;2022-11-12T11:47:34;101385.41;;;21.63;49.18
43312;BME280;30041;48.300;16.352;2022-11-12T11:50:10;101389.41;;;21.67;49.30
43312;BME280;30041;48.300;16.352;2022-11-12T11:55:47;101385.22;;;21.64;49.28
43312;BME280;30041;48.300;16.352;2022-11-12T12:01:00;101385.66;;;21.68;49.17
43312;BME280;30041;48.300;16.352;2022-11-12T12:06:32;101383.22;;;21.73;49.05
43312;BME280;30041;48.300;16.352;2022-11-12T12:12:45;101380.25;;;21.68;49.17
43312;BME280;30041;48.300;16.352;2022-11-12T12:15:32;101382.13;;;21.67;49.19
43312;BME280;30041;48.300;16.352;2022-11-12T12:21:05;101381.53;;;21.72;49.15
43312;BME280;30041;48.300;16.352;2022-11-12T12:23:45;101383.22;;;21.73;49.06
43312;BME280;30041;48.300;16.352;2022-11-12T12:26:52;101376.13;;;21.72;49.14
43312;BME280;30041;48.300;16.352;2022-11-12T12:29:36;101368.69;;;21.74;48.94
43312;BME280;30041;48.300;16.352;2022-11-12T12:32:24;101365.78;;;21.75;49.25
43312;BME280;30041;48.300;16.352;2022-11-12T12:35:00;101367.44;;;21.76;49.23
43312;BME280;30041;48.300;16.352;2022-11-12T12:37:42;101355.41;;;21.72;48.95
43312;BME280;30041;48.300;16.352;2022-11-12T12:40:17;101363.09;;;21.75;48.99
43312;BME280;30041;48.300;16.352;2022-11-12T12:42:58;101357.69;;;21.75;49.03
43312;BME280;30041;48.300;16.352;2022-11-12T12:45:41;101357.69;;;21.75;49.05
43312;BME280;30041;48.300;16.352;2022-11-12T12:48:20;101346.72;;;21.77;48.98
43312;BME280;30041;48.300;16.352;2022-11-12T12:50:47;101352.13;;;21.77;49.19
43312;BME280;30041;48.300;16.352;2022-11-12T12:55:58;101352.75;;;21.79;49.22
43312;BME280;30041;48.300;16.352;2022-11-12T12:58:31;101351.53;;;21.82;49.00
43312;BME280;30041;48.300;16.352;2022-11-12T13:01:03;101343.41;;;21.82;48.99
43312;BME280;30041;48.300;16.352;2022-11-12T13:03:50;101340.47;;;21.76;49.20
43312;BME280;30041;48.300;16.352;2022-11-12T13:08:46;101340.50;;;21.83;49.05
43312;BME280;30041;48.300;16.352;2022-11-12T13:16:59;101340.31;;;21.85;49.00
43312;BME280;30041;48.300;16.352;2022-11-12T13:19:27;101346.16;;;21.88;48.94
43312;BME280;30041;48.300;16.352;2022-11-12T13:25:23;101333.44;;;21.82;49.07
43312;BME280;30041;48.300;16.352;2022-11-12T13:32:59;101339.66;;;21.83;49.02
43312;BME280;30041;48.300;16.352;2022-11-12T13:35:35;101338.88;;;21.89;49.05
43312;BME280;30041;48.300;16.352;2022-11-12T13:48:44;101333.06;;;21.92;48.92
43312;BME280;30041;48.300;16.352;2022-11-12T13:51:17;101332.25;;;21.91;48.97
43312;BME280;30041;48.300;16.352;2022-11-12T13:53:46;101331.63;;;21.89;49.26
43312;BME280;30041;48.300;16.352;2022-11-12T13:56:28;101326.41;;;21.88;48.98